Time;durP1;ratioP1;P1;durP2;ratioP2;P2;SDS_P1;SDS_P2;PMS_P1;PMS_P2;Temp;Humidity;BMP_temperature;BMP_pressure;BME280_temperature;BME280_humidity;BME280_pressure;Samples;Min_cycle;Max_cycle;Signal;HPM_P1;HPM_P2
2022/03/03 00:00:35;;;;;;;18.1;10.85;;;;;;;-2.98;45.64746;95353.94;;;;
2022/03/03 00:01:36;;;;;;;18.1;10.85;;;;;;;-2.98;45.64746;95353.94;;;;
2022/03/03 00:02:37;;;;;;;18.1;10.85;;;;;;;-2.98;45.64746;95353.94;;;;
2022/03/03 00:03:37;;;;;;;18.1;10.85;;;;;;;-2.98;45.64746;95353.94;;;;
2022/03/03 00:04:38;;;;;;;18.1;10.85;;;;;;;-2.98;45.64746;95353.94;;;;
2022/03/03 00:05:39;;;;;;;18.1;10.85;;;;;;;-2.98;45.64746;95353.94;;;;
2022/03/03 00:06:39;;;;;;;17.6;10.65;;;;;;;-3.18;45.83594;95355.92;;;;
2022/03/03 00:07:40;;;;;;;17.6;10.65;;;;;;;-3.18;45.83594;95355.92;;;;
2022/03/03 00:08:40;;;;;;;17.6;10.65;;;;;;;-3.18;45.83594;95355.92;;;;
2022/03/03 00:09:41;;;;;;;17.6;10.65;;;;;;;-3.18;45.83594;95355.92;;;;
2022/03/03 00:10:41;;;;;;;17.6;10.65;;;;;;;-3.18;45.83594;95355.92;;;;
2022/03/03 00:11:42;;;;;;;17.6;10.65;;;;;;;-3.18;45.83594;95355.92;;;;
2022/03/03 00:12:42;;;;;;;17.6;10.65;;;;;;;-3.18;45.83594;95355.92;;;;
2022/03/03 00:13:43;;;;;;;17.6;10.65;;;;;;;-3.18;45.83594;95355.92;;;;
2022/03/03 00:14:45;;;;;;;17.6;10.65;;;;;;;-3.18;45.83594;95355.92;;;;
2022/03/03 00:15:46;;;;;;;17.6;10.65;;;;;;;-3.18;45.83594;95355.92;;;;
2022/03/03 00:16:46;;;;;;;16.75;10.5;;;;;;;-3.24;46.02832;95354.29;;;;
2022/03/03 00:17:47;;;;;;;16.75;10.5;;;;;;;-3.24;46.02832;95354.29;;;;
2022/03/03 00:18:47;;;;;;;16.75;10.5;;;;;;;-3.24;46.02832;95354.29;;;;
2022/03/03 00:19:48;;;;;;;16.75;10.5;;;;;;;-3.24;46.02832;95354.29;;;;
2022/03/03 00:20:48;;;;;;;16.75;10.5;;;;;;;-3.24;46.02832;95354.29;;;;
2022/03/03 00:21:49;;;;;;;16.75;10.5;;;;;;;-3.24;46.02832;95354.29;;;;
2022/03/03 00:22:49;;;;;;;16.75;10.5;;;;;;;-3.24;46.02832;95354.29;;;;
2022/03/03 00:23:50;;;;;;;16.75;10.5;;;;;;;-3.24;46.02832;95354.29;;;;
2022/03/03 00:24:52;;;;;;;16.75;10.5;;;;;;;-3.24;46.02832;95354.29;;;;
2022/03/03 00:25:53;;;;;;;16.75;10.5;;;;;;;-3.24;46.02832;95354.29;;;;
2022/03/03 00:26:53;;;;;;;16.75;10.5;;;;;;;-3.24;46.02832;95354.29;;;;
2022/03/03 00:27:54;;;;;;;17.85;9.85;;;;;;;-3.33;46.12305;95351.75;;;;
2022/03/03 00:28:54;;;;;;;17.85;9.85;;;;;;;-3.33;46.12305;95351.75;;;;
2022/03/03 00:29:55;;;;;;;17.85;9.85;;;;;;;-3.33;46.12305;95351.75;;;;
2022/03/03 00:30:55;;;;;;;17.85;9.85;;;;;;;-3.33;46.12305;95351.75;;;;
2022/03/03 00:31:56;;;;;;;17.85;9.85;;;;;;;-3.33;46.12305;95351.75;;;;
2022/03/03 00:32:56;;;;;;;17.85;9.85;;;;;;;-3.33;46.12305;95351.75;;;;
2022/03/03 00:33:57;;;;;;;17.85;9.85;;;;;;;-3.33;46.12305;95351.75;;;;
2022/03/03 00:34:57;;;;;;;17.85;9.85;;;;;;;-3.33;46.12305;95351.75;;;;
2022/03/03 00:35:58;;;;;;;17.85;9.85;;;;;;;-3.33;46.12305;95351.75;;;;
2022/03/03 00:36:58;;;;;;;17.85;9.85;;;;;;;-3.33;46.12305;95351.75;;;;
2022/03/03 00:37:59;;;;;;;17.85;9.85;;;;;;;-3.33;46.12305;95351.75;;;;
2022/03/03 00:38:59;;;;;;;17.3;9.950001;;;;;;;-3.48;46.29395;95348.8;;;;
2022/03/03 00:40:00;;;;;;;17.3;9.950001;;;;;;;-3.48;46.29395;95348.8;;;;
2022/03/03 00:41:01;;;;;;;17.3;9.950001;;;;;;;-3.48;46.29395;95348.8;;;;
2022/03/03 00:42:01;;;;;;;17.3;9.950001;;;;;;;-3.48;46.29395;95348.8;;;;
2022/03/03 00:43:02;;;;;;;17.3;9.950001;;;;;;;-3.48;46.29395;95348.8;;;;
2022/03/03 00:44:03;;;;;;;17.3;9.950001;;;;;;;-3.48;46.29395;95348.8;;;;
2022/03/03 00:45:04;;;;;;;17.3;9.950001;;;;;;;-3.48;46.29395;95348.8;;;;
2022/03/03 00:46:06;;;;;;;17.3;9.950001;;;;;;;-3.48;46.29395;95348.8;;;;
2022/03/03 00:47:06;;;;;;;17.3;9.950001;;;;;;;-3.48;46.29395;95348.8;;;;
2022/03/03 00:48:07;;;;;;;17.3;9.950001;;;;;;;-3.48;46.29395;95348.8;;;;
2022/03/03 00:49:07;;;;;;;17.8;10.1;;;;;;;-3.61;46.47754;95361.1;;;;
2022/03/03 00:50:08;;;;;;;17.8;10.1;;;;;;;-3.61;46.47754;95361.1;;;;
2022/03/03 00:51:09;;;;;;;17.8;10.1;;;;;;;-3.61;46.47754;95361.1;;;;
2022/03/03 00:52:09;;;;;;;17.8;10.1;;;;;;;-3.61;46.47754;95361.1;;;;
2022/03/03 00:53:10;;;;;;;17.8;10.1;;;;;;;-3.61;46.47754;95361.1;;;;
2022/03/03 00:54:10;;;;;;;17.8;10.1;;;;;;;-3.61;46.47754;95361.1;;;;
2022/03/03 00:55:11;;;;;;;17.8;10.1;;;;;;;-3.61;46.47754;95361.1;;;;
2022/03/03 00:56:11;;;;;;;17.8;10.1;;;;;;;-3.61;46.47754;95361.1;;;;
2022/03/03 00:57:12;;;;;;;17.8;10.1;;;;;;;-3.61;46.47754;95361.1;;;;
2022/03/03 00:58:13;;;;;;;17.8;10.1;;;;;;;-3.61;46.47754;95361.1;;;;
2022/03/03 00:59:13;;;;;;;17.8;10.1;;;;;;;-3.61;46.47754;95361.1;;;;
2022/03/03 01:00:14;;;;;;;17.8;12.9;;;;;;;-3.7;46.65625;95367.67;;;;
2022/03/03 01:01:16;;;;;;;17.8;12.9;;;;;;;-3.7;46.65625;95367.67;;;;
2022/03/03 01:02:16;;;;;;;17.8;12.9;;;;;;;-3.7;46.65625;95367.67;;;;
2022/03/03 01:03:17;;;;;;;17.8;12.9;;;;;;;-3.7;46.65625;95367.67;;;;
2022/03/03 01:04:19;;;;;;;17.8;12.9;;;;;;;-3.7;46.65625;95367.67;;;;
2022/03/03 01:05:20;;;;;;;17.8;12.9;;;;;;;-3.7;46.65625;95367.67;;;;
2022/03/03 01:06:20;;;;;;;17.8;12.9;;;;;;;-3.7;46.65625;95367.67;;;;
2022/03/03 01:07:21;;;;;;;17.8;12.9;;;;;;;-3.7;46.65625;95367.67;;;;
2022/03/03 01:08:21;;;;;;;17.8;12.9;;;;;;;-3.7;46.65625;95367.67;;;;
2022/03/03 01:09:22;;;;;;;17.8;12.9;;;;;;;-3.7;46.65625;95367.67;;;;
2022/03/03 01:10:22;;;;;;;17.45;9.099999;;;;;;;-3.75;47.73535;95355.84;;;;
2022/03/03 01:11:23;;;;;;;17.45;9.099999;;;;;;;-3.75;47.73535;95355.84;;;;
2022/03/03 01:12:24;;;;;;;17.45;9.099999;;;;;;;-3.75;47.73535;95355.84;;;;
2022/03/03 01:13:24;;;;;;;17.45;9.099999;;;;;;;-3.75;47.73535;95355.84;;;;
2022/03/03 01:14:25;;;;;;;17.45;9.099999;;;;;;;-3.75;47.73535;95355.84;;;;
2022/03/03 01:15:26;;;;;;;17.45;9.099999;;;;;;;-3.75;47.73535;95355.84;;;;
2022/03/03 01:16:26;;;;;;;17.45;9.099999;;;;;;;-3.75;47.73535;95355.84;;;;
2022/03/03 01:17:27;;;;;;;17.45;9.099999;;;;;;;-3.75;47.73535;95355.84;;;;
2022/03/03 01:18:27;;;;;;;17.45;9.099999;;;;;;;-3.75;47.73535;95355.84;;;;
2022/03/03 01:19:30;;;;;;;17.45;9.099999;;;;;;;-3.75;47.73535;95355.84;;;;
2022/03/03 01:20:30;;;;;;;17.45;9.099999;;;;;;;-3.75;47.73535;95355.84;;;;
2022/03/03 01:21:31;;;;;;;19.75;13.95;;;;;;;-3.9;47.64551;95341.48;;;;
2022/03/03 01:22:32;;;;;;;19.75;13.95;;;;;;;-3.9;47.64551;95341.48;;;;
2022/03/03 01:23:32;;;;;;;19.75;13.95;;;;;;;-3.9;47.64551;95341.48;;;;
2022/03/03 01:24:33;;;;;;;19.75;13.95;;;;;;;-3.9;47.64551;95341.48;;;;
2022/03/03 01:25:34;;;;;;;19.75;13.95;;;;;;;-3.9;47.64551;95341.48;;;;
2022/03/03 01:26:34;;;;;;;19.75;13.95;;;;;;;-3.9;47.64551;95341.48;;;;
2022/03/03 01:27:35;;;;;;;19.75;13.95;;;;;;;-3.9;47.64551;95341.48;;;;
2022/03/03 01:28:35;;;;;;;19.75;13.95;;;;;;;-3.9;47.64551;95341.48;;;;
2022/03/03 01:29:36;;;;;;;19.75;13.95;;;;;;;-3.9;47.64551;95341.48;;;;
2022/03/03 01:30:36;;;;;;;19.75;13.95;;;;;;;-3.9;47.64551;95341.48;;;;
2022/03/03 01:31:37;;;;;;;18.6;13.35;;;;;;;-4.03;48.65039;95350.31;;;;
2022/03/03 01:32:37;;;;;;;18.6;13.35;;;;;;;-4.03;48.65039;95350.31;;;;
2022/03/03 01:33:38;;;;;;;18.6;13.35;;;;;;;-4.03;48.65039;95350.31;;;;
2022/03/03 01:34:39;;;;;;;18.6;13.35;;;;;;;-4.03;48.65039;95350.31;;;;
2022/03/03 01:35:39;;;;;;;18.6;13.35;;;;;;;-4.03;48.65039;95350.31;;;;
2022/03/03 01:36:41;;;;;;;18.6;13.35;;;;;;;-4.03;48.65039;95350.31;;;;
2022/03/03 01:37:41;;;;;;;18.6;13.35;;;;;;;-4.03;48.65039;95350.31;;;;
2022/03/03 01:38:42;;;;;;;18.6;13.35;;;;;;;-4.03;48.65039;95350.31;;;;
2022/03/03 01:39:42;;;;;;;18.6;13.35;;;;;;;-4.03;48.65039;95350.31;;;;
2022/03/03 01:40:43;;;;;;;18.6;13.35;;;;;;;-4.03;48.65039;95350.31;;;;
2022/03/03 01:41:43;;;;;;;18.6;13.35;;;;;;;-4.03;48.65039;95350.31;;;;
2022/03/03 01:42:44;;;;;;;17.4;13;;;;;;;-4.15;49.42871;95347.44;;;;
2022/03/03 01:43:44;;;;;;;17.4;13;;;;;;;-4.15;49.42871;95347.44;;;;
2022/03/03 01:44:45;;;;;;;17.4;13;;;;;;;-4.15;49.42871;95347.44;;;;
2022/03/03 01:45:46;;;;;;;17.4;13;;;;;;;-4.15;49.42871;95347.44;;;;
2022/03/03 01:46:47;;;;;;;17.4;13;;;;;;;-4.15;49.42871;95347.44;;;;
2022/03/03 01:47:49;;;;;;;17.4;13;;;;;;;-4.15;49.42871;95347.44;;;;
2022/03/03 01:48:50;;;;;;;17.4;13;;;;;;;-4.15;49.42871;95347.44;;;;
2022/03/03 01:49:51;;;;;;;17.4;13;;;;;;;-4.15;49.42871;95347.44;;;;
2022/03/03 01:50:54;;;;;;;17.4;13;;;;;;;-4.15;49.42871;95347.44;;;;
2022/03/03 01:51:54;;;;;;;17.4;13;;;;;;;-4.15;49.42871;95347.44;;;;
2022/03/03 01:52:55;;;;;;;16.3;12.6;;;;;;;-4.23;50.06445;95332.9;;;;
2022/03/03 01:53:55;;;;;;;16.3;12.6;;;;;;;-4.23;50.06445;95332.9;;;;
2022/03/03 01:54:56;;;;;;;16.3;12.6;;;;;;;-4.23;50.06445;95332.9;;;;
2022/03/03 01:55:56;;;;;;;16.3;12.6;;;;;;;-4.23;50.06445;95332.9;;;;
2022/03/03 01:56:57;;;;;;;16.3;12.6;;;;;;;-4.23;50.06445;95332.9;;;;
2022/03/03 01:57:58;;;;;;;16.3;12.6;;;;;;;-4.23;50.06445;95332.9;;;;
2022/03/03 01:59:03;;;;;;;16.3;12.6;;;;;;;-4.23;50.06445;95332.9;;;;
2022/03/03 02:00:03;;;;;;;16.3;12.6;;;;;;;-4.23;50.06445;95332.9;;;;
2022/03/03 02:01:08;;;;;;;16.3;12.6;;;;;;;-4.23;50.06445;95332.9;;;;
2022/03/03 02:02:10;;;;;;;16.3;12.6;;;;;;;-4.23;50.06445;95332.9;;;;
2022/03/03 02:03:11;;;;;;;16.3;12.6;;;;;;;-4.23;50.06445;95332.9;;;;
2022/03/03 02:04:11;;;;;;;17.1;12.55;;;;;;;-4.32;50.62598;95310.49;;;;
2022/03/03 02:05:12;;;;;;;17.1;12.55;;;;;;;-4.32;50.62598;95310.49;;;;
2022/03/03 02:06:13;;;;;;;17.1;12.55;;;;;;;-4.32;50.62598;95310.49;;;;
2022/03/03 02:07:13;;;;;;;17.1;12.55;;;;;;;-4.32;50.62598;95310.49;;;;
2022/03/03 02:08:14;;;;;;;17.1;12.55;;;;;;;-4.32;50.62598;95310.49;;;;
2022/03/03 02:09:14;;;;;;;17.1;12.55;;;;;;;-4.32;50.62598;95310.49;;;;
2022/03/03 02:10:15;;;;;;;17.1;12.55;;;;;;;-4.32;50.62598;95310.49;;;;
2022/03/03 02:11:16;;;;;;;17.1;12.55;;;;;;;-4.32;50.62598;95310.49;;;;
2022/03/03 02:12:17;;;;;;;17.1;12.55;;;;;;;-4.32;50.62598;95310.49;;;;
2022/03/03 02:13:17;;;;;;;17.1;12.55;;;;;;;-4.32;50.62598;95310.49;;;;
2022/03/03 02:14:18;;;;;;;16.7;12.4;;;;;;;-4.29;51.1709;95293.48;;;;
2022/03/03 02:15:19;;;;;;;16.7;12.4;;;;;;;-4.29;51.1709;95293.48;;;;
2022/03/03 02:16:20;;;;;;;16.7;12.4;;;;;;;-4.29;51.1709;95293.48;;;;
2022/03/03 02:17:21;;;;;;;16.7;12.4;;;;;;;-4.29;51.1709;95293.48;;;;
2022/03/03 02:18:22;;;;;;;16.7;12.4;;;;;;;-4.29;51.1709;95293.48;;;;
2022/03/03 02:19:22;;;;;;;16.7;12.4;;;;;;;-4.29;51.1709;95293.48;;;;
2022/03/03 02:20:23;;;;;;;16.7;12.4;;;;;;;-4.29;51.1709;95293.48;;;;
2022/03/03 02:21:26;;;;;;;16.7;12.4;;;;;;;-4.29;51.1709;95293.48;;;;
2022/03/03 02:22:27;;;;;;;16.7;12.4;;;;;;;-4.29;51.1709;95293.48;;;;
2022/03/03 02:23:33;;;;;;;16.7;12.4;;;;;;;-4.29;51.1709;95293.48;;;;
2022/03/03 02:24:33;;;;;;;16.7;12.4;;;;;;;-4.29;51.1709;95293.48;;;;
2022/03/03 02:25:34;;;;;;;17.55;12.95;;;;;;;-4.3;51.5127;95284.82;;;;
2022/03/03 02:26:34;;;;;;;17.55;12.95;;;;;;;-4.3;51.5127;95284.82;;;;
2022/03/03 02:27:36;;;;;;;17.55;12.95;;;;;;;-4.3;51.5127;95284.82;;;;
2022/03/03 02:28:37;;;;;;;17.55;12.95;;;;;;;-4.3;51.5127;95284.82;;;;
2022/03/03 02:29:37;;;;;;;17.55;12.95;;;;;;;-4.3;51.5127;95284.82;;;;
2022/03/03 02:30:38;;;;;;;17.55;12.95;;;;;;;-4.3;51.5127;95284.82;;;;
2022/03/03 02:31:39;;;;;;;17.55;12.95;;;;;;;-4.3;51.5127;95284.82;;;;
2022/03/03 02:32:39;;;;;;;17.55;12.95;;;;;;;-4.3;51.5127;95284.82;;;;
2022/03/03 02:33:40;;;;;;;17.55;12.95;;;;;;;-4.3;51.5127;95284.82;;;;
2022/03/03 02:34:41;;;;;;;17.55;12.95;;;;;;;-4.3;51.5127;95284.82;;;;
2022/03/03 02:35:47;;;;;;;17.95;13;;;;;;;-4.3;51.8457;95290.9;;;;
2022/03/03 02:36:47;;;;;;;17.95;13;;;;;;;-4.3;51.8457;95290.9;;;;
2022/03/03 02:37:48;;;;;;;17.95;13;;;;;;;-4.3;51.8457;95290.9;;;;
2022/03/03 02:38:48;;;;;;;17.95;13;;;;;;;-4.3;51.8457;95290.9;;;;
2022/03/03 02:39:50;;;;;;;17.95;13;;;;;;;-4.3;51.8457;95290.9;;;;
2022/03/03 02:40:51;;;;;;;17.95;13;;;;;;;-4.3;51.8457;95290.9;;;;
2022/03/03 02:41:51;;;;;;;17.95;13;;;;;;;-4.3;51.8457;95290.9;;;;
2022/03/03 02:42:52;;;;;;;17.95;13;;;;;;;-4.3;51.8457;95290.9;;;;
2022/03/03 02:43:54;;;;;;;17.95;13;;;;;;;-4.3;51.8457;95290.9;;;;
2022/03/03 02:44:56;;;;;;;17.95;13;;;;;;;-4.3;51.8457;95290.9;;;;
2022/03/03 02:45:56;;;;;;;17.95;13;;;;;;;-4.3;51.8457;95290.9;;;;
2022/03/03 02:46:57;;;;;;;17.85;13.25;;;;;;;-4.34;52.15234;95282.54;;;;
2022/03/03 02:47:57;;;;;;;17.85;13.25;;;;;;;-4.34;52.15234;95282.54;;;;
2022/03/03 02:48:58;;;;;;;17.85;13.25;;;;;;;-4.34;52.15234;95282.54;;;;
2022/03/03 02:49:59;;;;;;;17.85;13.25;;;;;;;-4.34;52.15234;95282.54;;;;
2022/03/03 02:50:59;;;;;;;17.85;13.25;;;;;;;-4.34;52.15234;95282.54;;;;
2022/03/03 02:52:00;;;;;;;17.85;13.25;;;;;;;-4.34;52.15234;95282.54;;;;
2022/03/03 02:53:02;;;;;;;17.85;13.25;;;;;;;-4.34;52.15234;95282.54;;;;
2022/03/03 02:54:02;;;;;;;17.85;13.25;;;;;;;-4.34;52.15234;95282.54;;;;
2022/03/03 02:55:03;;;;;;;17.85;13.25;;;;;;;-4.34;52.15234;95282.54;;;;
2022/03/03 02:56:05;;;;;;;17.85;13.25;;;;;;;-4.34;52.15234;95282.54;;;;
2022/03/03 02:58:12;;;;;;;15.35;12.65;;;;;;;-4.41;52.55078;95275.7;;;;
2022/03/03 02:59:12;;;;;;;15.35;12.65;;;;;;;-4.41;52.55078;95275.7;;;;
2022/03/03 03:00:13;;;;;;;15.35;12.65;;;;;;;-4.41;52.55078;95275.7;;;;
2022/03/03 03:01:15;;;;;;;15.35;12.65;;;;;;;-4.41;52.55078;95275.7;;;;
2022/03/03 03:02:16;;;;;;;15.35;12.65;;;;;;;-4.41;52.55078;95275.7;;;;
2022/03/03 03:03:16;;;;;;;15.35;12.65;;;;;;;-4.41;52.55078;95275.7;;;;
2022/03/03 03:04:18;;;;;;;15.35;12.65;;;;;;;-4.41;52.55078;95275.7;;;;
2022/03/03 03:05:18;;;;;;;15.35;12.65;;;;;;;-4.41;52.55078;95275.7;;;;
2022/03/03 03:06:19;;;;;;;15.35;12.65;;;;;;;-4.41;52.55078;95275.7;;;;
2022/03/03 03:07:20;;;;;;;15.35;12.65;;;;;;;-4.41;52.55078;95275.7;;;;
2022/03/03 03:08:20;;;;;;;18.45;13.65;;;;;;;-4.46;52.90723;95289.37;;;;
2022/03/03 03:09:21;;;;;;;18.45;13.65;;;;;;;-4.46;52.90723;95289.37;;;;
2022/03/03 03:10:21;;;;;;;18.45;13.65;;;;;;;-4.46;52.90723;95289.37;;;;
2022/03/03 03:11:22;;;;;;;18.45;13.65;;;;;;;-4.46;52.90723;95289.37;;;;
2022/03/03 03:12:22;;;;;;;18.45;13.65;;;;;;;-4.46;52.90723;95289.37;;;;
2022/03/03 03:13:23;;;;;;;18.45;13.65;;;;;;;-4.46;52.90723;95289.37;;;;
2022/03/03 03:14:23;;;;;;;18.45;13.65;;;;;;;-4.46;52.90723;95289.37;;;;
2022/03/03 03:15:24;;;;;;;18.45;13.65;;;;;;;-4.46;52.90723;95289.37;;;;
2022/03/03 03:16:25;;;;;;;18.45;13.65;;;;;;;-4.46;52.90723;95289.37;;;;
2022/03/03 03:17:25;;;;;;;18.45;13.65;;;;;;;-4.46;52.90723;95289.37;;;;
2022/03/03 03:18:26;;;;;;;18.45;13.65;;;;;;;-4.46;52.90723;95289.37;;;;
2022/03/03 03:19:26;;;;;;;18.45;13.65;;;;;;;-4.46;52.90723;95289.37;;;;
2022/03/03 03:20:27;;;;;;;18.45;13.65;;;;;;;-4.46;52.90723;95289.37;;;;
2022/03/03 03:21:27;;;;;;;18.45;13.65;;;;;;;-4.46;52.90723;95289.37;;;;
2022/03/03 03:22:28;;;;;;;18.45;13.65;;;;;;;-4.46;52.90723;95289.37;;;;
2022/03/03 03:23:28;;;;;;;18.45;13.65;;;;;;;-4.46;52.90723;95289.37;;;;
2022/03/03 03:24:29;;;;;;;18.45;13.65;;;;;;;-4.46;52.90723;95289.37;;;;
2022/03/03 03:25:29;;;;;;;18.45;13.65;;;;;;;-4.46;52.90723;95289.37;;;;
2022/03/03 03:26:30;;;;;;;18.45;13.65;;;;;;;-4.46;52.90723;95289.37;;;;
2022/03/03 03:27:31;;;;;;;18.45;13.65;;;;;;;-4.46;52.90723;95289.37;;;;
2022/03/03 03:28:31;;;;;;;18.45;13.65;;;;;;;-4.46;52.90723;95289.37;;;;
2022/03/03 03:29:32;;;;;;;17.2;13.1;;;;;;;-4.71;53.66504;95279.5;;;;
2022/03/03 03:30:32;;;;;;;17.2;13.1;;;;;;;-4.71;53.66504;95279.5;;;;
2022/03/03 03:31:33;;;;;;;17.2;13.1;;;;;;;-4.71;53.66504;95279.5;;;;
2022/03/03 03:32:33;;;;;;;17.2;13.1;;;;;;;-4.71;53.66504;95279.5;;;;
2022/03/03 03:33:34;;;;;;;17.2;13.1;;;;;;;-4.71;53.66504;95279.5;;;;
2022/03/03 03:34:35;;;;;;;17.2;13.1;;;;;;;-4.71;53.66504;95279.5;;;;
2022/03/03 03:35:35;;;;;;;17.2;13.1;;;;;;;-4.71;53.66504;95279.5;;;;
2022/03/03 03:36:36;;;;;;;17.2;13.1;;;;;;;-4.71;53.66504;95279.5;;;;
2022/03/03 03:37:36;;;;;;;17.2;13.1;;;;;;;-4.71;53.66504;95279.5;;;;
2022/03/03 03:38:37;;;;;;;17.2;13.1;;;;;;;-4.71;53.66504;95279.5;;;;
2022/03/03 03:39:38;;;;;;;17.2;13.1;;;;;;;-4.71;53.66504;95279.5;;;;
2022/03/03 03:40:39;;;;;;;17;13.75;;;;;;;-4.77;54.03027;95277.94;;;;
2022/03/03 03:41:40;;;;;;;17;13.75;;;;;;;-4.77;54.03027;95277.94;;;;
2022/03/03 03:42:41;;;;;;;17;13.75;;;;;;;-4.77;54.03027;95277.94;;;;
2022/03/03 03:43:41;;;;;;;17;13.75;;;;;;;-4.77;54.03027;95277.94;;;;
2022/03/03 03:44:42;;;;;;;17;13.75;;;;;;;-4.77;54.03027;95277.94;;;;
2022/03/03 03:45:42;;;;;;;17;13.75;;;;;;;-4.77;54.03027;95277.94;;;;
2022/03/03 03:46:43;;;;;;;17;13.75;;;;;;;-4.77;54.03027;95277.94;;;;
2022/03/03 03:47:44;;;;;;;17;13.75;;;;;;;-4.77;54.03027;95277.94;;;;
2022/03/03 03:48:45;;;;;;;17;13.75;;;;;;;-4.77;54.03027;95277.94;;;;
2022/03/03 03:49:45;;;;;;;17;13.75;;;;;;;-4.77;54.03027;95277.94;;;;
2022/03/03 03:50:46;;;;;;;19.45;15.05;;;;;;;-4.85;54.29199;95266.33;;;;
2022/03/03 03:51:47;;;;;;;19.45;15.05;;;;;;;-4.85;54.29199;95266.33;;;;
2022/03/03 03:52:47;;;;;;;19.45;15.05;;;;;;;-4.85;54.29199;95266.33;;;;
2022/03/03 03:53:48;;;;;;;19.45;15.05;;;;;;;-4.85;54.29199;95266.33;;;;
2022/03/03 03:54:48;;;;;;;19.45;15.05;;;;;;;-4.85;54.29199;95266.33;;;;
2022/03/03 03:55:48;;;;;;;19.45;15.05;;;;;;;-4.85;54.29199;95266.33;;;;
2022/03/03 03:56:50;;;;;;;19.45;15.05;;;;;;;-4.85;54.29199;95266.33;;;;
2022/03/03 03:57:50;;;;;;;19.45;15.05;;;;;;;-4.85;54.29199;95266.33;;;;
2022/03/03 03:58:51;;;;;;;19.45;15.05;;;;;;;-4.85;54.29199;95266.33;;;;
2022/03/03 03:59:51;;;;;;;19.45;15.05;;;;;;;-4.85;54.29199;95266.33;;;;
2022/03/03 04:00:52;;;;;;;19.45;15.05;;;;;;;-4.85;54.29199;95266.33;;;;
2022/03/03 04:01:52;;;;;;;18.55;14.25;;;;;;;-4.96;54.5459;95249.44;;;;
2022/03/03 04:02:53;;;;;;;18.55;14.25;;;;;;;-4.96;54.5459;95249.44;;;;
2022/03/03 04:03:54;;;;;;;18.55;14.25;;;;;;;-4.96;54.5459;95249.44;;;;
2022/03/03 04:04:54;;;;;;;18.55;14.25;;;;;;;-4.96;54.5459;95249.44;;;;
2022/03/03 04:05:55;;;;;;;18.55;14.25;;;;;;;-4.96;54.5459;95249.44;;;;
2022/03/03 04:06:55;;;;;;;18.55;14.25;;;;;;;-4.96;54.5459;95249.44;;;;
2022/03/03 04:07:56;;;;;;;18.55;14.25;;;;;;;-4.96;54.5459;95249.44;;;;
2022/03/03 04:08:57;;;;;;;18.55;14.25;;;;;;;-4.96;54.5459;95249.44;;;;
2022/03/03 04:09:57;;;;;;;18.55;14.25;;;;;;;-4.96;54.5459;95249.44;;;;
2022/03/03 04:10:58;;;;;;;18.55;14.25;;;;;;;-4.96;54.5459;95249.44;;;;
2022/03/03 04:11:58;;;;;;;19.8;14.3;;;;;;;-5.05;54.89746;95236.24;;;;
2022/03/03 04:12:59;;;;;;;19.8;14.3;;;;;;;-5.05;54.89746;95236.24;;;;
2022/03/03 04:13:59;;;;;;;19.8;14.3;;;;;;;-5.05;54.89746;95236.24;;;;
2022/03/03 04:15:00;;;;;;;19.8;14.3;;;;;;;-5.05;54.89746;95236.24;;;;
2022/03/03 04:16:01;;;;;;;19.8;14.3;;;;;;;-5.05;54.89746;95236.24;;;;
2022/03/03 04:17:01;;;;;;;19.8;14.3;;;;;;;-5.05;54.89746;95236.24;;;;
2022/03/03 04:18:02;;;;;;;19.8;14.3;;;;;;;-5.05;54.89746;95236.24;;;;
2022/03/03 04:19:03;;;;;;;19.8;14.3;;;;;;;-5.05;54.89746;95236.24;;;;
2022/03/03 04:20:03;;;;;;;19.8;14.3;;;;;;;-5.05;54.89746;95236.24;;;;
2022/03/03 04:21:06;;;;;;;19.8;14.3;;;;;;;-5.05;54.89746;95236.24;;;;
2022/03/03 04:22:06;;;;;;;19.8;14.3;;;;;;;-5.05;54.89746;95236.24;;;;
2022/03/03 04:23:07;;;;;;;20.4;15.35;;;;;;;-5.09;55.15234;95230.94;;;;
2022/03/03 04:24:07;;;;;;;20.4;15.35;;;;;;;-5.09;55.15234;95230.94;;;;
2022/03/03 04:25:10;;;;;;;20.4;15.35;;;;;;;-5.09;55.15234;95230.94;;;;
2022/03/03 04:26:10;;;;;;;20.4;15.35;;;;;;;-5.09;55.15234;95230.94;;;;
2022/03/03 04:27:11;;;;;;;20.4;15.35;;;;;;;-5.09;55.15234;95230.94;;;;
2022/03/03 04:28:11;;;;;;;20.4;15.35;;;;;;;-5.09;55.15234;95230.94;;;;
2022/03/03 04:29:12;;;;;;;20.4;15.35;;;;;;;-5.09;55.15234;95230.94;;;;
2022/03/03 04:30:12;;;;;;;20.4;15.35;;;;;;;-5.09;55.15234;95230.94;;;;
2022/03/03 04:31:13;;;;;;;20.4;15.35;;;;;;;-5.09;55.15234;95230.94;;;;
2022/03/03 04:32:13;;;;;;;20.4;15.35;;;;;;;-5.09;55.15234;95230.94;;;;
2022/03/03 04:33:14;;;;;;;24.2;15.15;;;;;;;-5.12;55.47949;95231.2;;;;
2022/03/03 04:34:15;;;;;;;24.2;15.15;;;;;;;-5.12;55.47949;95231.2;;;;
2022/03/03 04:35:15;;;;;;;24.2;15.15;;;;;;;-5.12;55.47949;95231.2;;;;
2022/03/03 04:36:16;;;;;;;24.2;15.15;;;;;;;-5.12;55.47949;95231.2;;;;
2022/03/03 04:37:16;;;;;;;24.2;15.15;;;;;;;-5.12;55.47949;95231.2;;;;
2022/03/03 04:38:17;;;;;;;24.2;15.15;;;;;;;-5.12;55.47949;95231.2;;;;
2022/03/03 04:39:17;;;;;;;24.2;15.15;;;;;;;-5.12;55.47949;95231.2;;;;
2022/03/03 04:40:18;;;;;;;24.2;15.15;;;;;;;-5.12;55.47949;95231.2;;;;
2022/03/03 04:41:18;;;;;;;24.2;15.15;;;;;;;-5.12;55.47949;95231.2;;;;
2022/03/03 04:42:19;;;;;;;24.2;15.15;;;;;;;-5.12;55.47949;95231.2;;;;
2022/03/03 04:43:20;;;;;;;24.2;15.15;;;;;;;-5.12;55.47949;95231.2;;;;
2022/03/03 04:44:20;;;;;;;21.35;15.35;;;;;;;-5.18;55.78223;95228.75;;;;
2022/03/03 04:45:21;;;;;;;21.35;15.35;;;;;;;-5.18;55.78223;95228.75;;;;
2022/03/03 04:46:22;;;;;;;21.35;15.35;;;;;;;-5.18;55.78223;95228.75;;;;
2022/03/03 04:47:22;;;;;;;21.35;15.35;;;;;;;-5.18;55.78223;95228.75;;;;
2022/03/03 04:48:29;;;;;;;21.35;15.35;;;;;;;-5.18;55.78223;95228.75;;;;
2022/03/03 04:49:29;;;;;;;21.35;15.35;;;;;;;-5.18;55.78223;95228.75;;;;
2022/03/03 04:50:30;;;;;;;21.35;15.35;;;;;;;-5.18;55.78223;95228.75;;;;
2022/03/03 04:51:31;;;;;;;21.35;15.35;;;;;;;-5.18;55.78223;95228.75;;;;
2022/03/03 04:52:32;;;;;;;21.35;15.35;;;;;;;-5.18;55.78223;95228.75;;;;
2022/03/03 04:53:32;;;;;;;21.35;15.35;;;;;;;-5.18;55.78223;95228.75;;;;
2022/03/03 04:54:33;;;;;;;21.45;14.8;;;;;;;-5.28;56.04004;95218.66;;;;
2022/03/03 04:55:33;;;;;;;21.45;14.8;;;;;;;-5.28;56.04004;95218.66;;;;
2022/03/03 04:56:34;;;;;;;21.45;14.8;;;;;;;-5.28;56.04004;95218.66;;;;
2022/03/03 04:57:35;;;;;;;21.45;14.8;;;;;;;-5.28;56.04004;95218.66;;;;
2022/03/03 04:58:35;;;;;;;21.45;14.8;;;;;;;-5.28;56.04004;95218.66;;;;
2022/03/03 04:59:36;;;;;;;21.45;14.8;;;;;;;-5.28;56.04004;95218.66;;;;
2022/03/03 05:00:37;;;;;;;21.45;14.8;;;;;;;-5.28;56.04004;95218.66;;;;
2022/03/03 05:01:37;;;;;;;21.45;14.8;;;;;;;-5.28;56.04004;95218.66;;;;
2022/03/03 05:02:38;;;;;;;21.45;14.8;;;;;;;-5.28;56.04004;95218.66;;;;
2022/03/03 05:03:38;;;;;;;21.45;14.8;;;;;;;-5.28;56.04004;95218.66;;;;
2022/03/03 05:04:39;;;;;;;21.45;14.8;;;;;;;-5.28;56.04004;95218.66;;;;
2022/03/03 05:05:40;;;;;;;21.9;16.05;;;;;;;-5.37;56.29785;95223.86;;;;
2022/03/03 05:06:41;;;;;;;21.9;16.05;;;;;;;-5.37;56.29785;95223.86;;;;
2022/03/03 05:07:41;;;;;;;21.9;16.05;;;;;;;-5.37;56.29785;95223.86;;;;
2022/03/03 05:08:41;;;;;;;21.9;16.05;;;;;;;-5.37;56.29785;95223.86;;;;
2022/03/03 05:09:42;;;;;;;21.9;16.05;;;;;;;-5.37;56.29785;95223.86;;;;
2022/03/03 05:10:42;;;;;;;21.9;16.05;;;;;;;-5.37;56.29785;95223.86;;;;
2022/03/03 05:11:43;;;;;;;21.9;16.05;;;;;;;-5.37;56.29785;95223.86;;;;
2022/03/03 05:12:44;;;;;;;21.9;16.05;;;;;;;-5.37;56.29785;95223.86;;;;
2022/03/03 05:13:44;;;;;;;21.9;16.05;;;;;;;-5.37;56.29785;95223.86;;;;
2022/03/03 05:14:45;;;;;;;21.9;16.05;;;;;;;-5.37;56.29785;95223.86;;;;
2022/03/03 05:15:46;;;;;;;21.9;16.05;;;;;;;-5.37;56.29785;95223.86;;;;
2022/03/03 05:16:46;;;;;;;21.1;16.2;;;;;;;-5.46;56.57422;95230.45;;;;
2022/03/03 05:17:47;;;;;;;21.1;16.2;;;;;;;-5.46;56.57422;95230.45;;;;
2022/03/03 05:18:47;;;;;;;21.1;16.2;;;;;;;-5.46;56.57422;95230.45;;;;
2022/03/03 05:19:48;;;;;;;21.1;16.2;;;;;;;-5.46;56.57422;95230.45;;;;
2022/03/03 05:20:48;;;;;;;21.1;16.2;;;;;;;-5.46;56.57422;95230.45;;;;
2022/03/03 05:21:49;;;;;;;21.1;16.2;;;;;;;-5.46;56.57422;95230.45;;;;
2022/03/03 05:22:50;;;;;;;21.1;16.2;;;;;;;-5.46;56.57422;95230.45;;;;
2022/03/03 05:23:50;;;;;;;21.1;16.2;;;;;;;-5.46;56.57422;95230.45;;;;
2022/03/03 05:24:53;;;;;;;21.1;16.2;;;;;;;-5.46;56.57422;95230.45;;;;
2022/03/03 05:25:54;;;;;;;21.1;16.2;;;;;;;-5.46;56.57422;95230.45;;;;
2022/03/03 05:26:54;;;;;;;21.25;16.5;;;;;;;-5.51;56.76465;95226.11;;;;
2022/03/03 05:27:55;;;;;;;21.25;16.5;;;;;;;-5.51;56.76465;95226.11;;;;
2022/03/03 05:28:55;;;;;;;21.25;16.5;;;;;;;-5.51;56.76465;95226.11;;;;
2022/03/03 05:29:56;;;;;;;21.25;16.5;;;;;;;-5.51;56.76465;95226.11;;;;
2022/03/03 05:30:56;;;;;;;21.25;16.5;;;;;;;-5.51;56.76465;95226.11;;;;
2022/03/03 05:31:58;;;;;;;21.25;16.5;;;;;;;-5.51;56.76465;95226.11;;;;
2022/03/03 05:32:58;;;;;;;21.25;16.5;;;;;;;-5.51;56.76465;95226.11;;;;
2022/03/03 05:33:59;;;;;;;21.25;16.5;;;;;;;-5.51;56.76465;95226.11;;;;
2022/03/03 05:34:59;;;;;;;21.25;16.5;;;;;;;-5.51;56.76465;95226.11;;;;
2022/03/03 05:36:00;;;;;;;21.25;16.5;;;;;;;-5.51;56.76465;95226.11;;;;
2022/03/03 05:37:08;;;;;;;21.25;16.5;;;;;;;-5.51;56.76465;95226.11;;;;
2022/03/03 05:38:10;;;;;;;21.25;16.5;;;;;;;-5.51;56.76465;95226.11;;;;
2022/03/03 05:39:11;;;;;;;21.25;16.5;;;;;;;-5.51;56.76465;95226.11;;;;
2022/03/03 05:40:11;;;;;;;21.25;16.5;;;;;;;-5.51;56.76465;95226.11;;;;
2022/03/03 05:41:12;;;;;;;21.25;16.5;;;;;;;-5.51;56.76465;95226.11;;;;
2022/03/03 05:42:12;;;;;;;21.25;16.5;;;;;;;-5.51;56.76465;95226.11;;;;